createdAt,value
2022-11-28T00:08:22.777Z,1.10
2022-11-28T00:18:26.257Z,1.00
2022-11-28T00:28:31.063Z,0.80
2022-11-28T00:38:34.865Z,0.80
2022-11-28T00:48:39.753Z,0.80
2022-11-28T00:58:44.235Z,0.90
2022-11-28T01:08:49.132Z,0.90
2022-11-28T01:18:53.184Z,0.80
2022-11-28T01:28:59.792Z,0.70
2022-11-28T01:39:03.201Z,0.70
2022-11-28T01:49:12.977Z,0.70
2022-11-28T01:59:17.603Z,0.60
2022-11-28T02:09:22.381Z,0.60
2022-11-28T02:20:31.231Z,0.60
2022-11-28T02:30:49.986Z,0.60
2022-11-28T02:41:02.232Z,0.60
2022-11-28T02:51:12.884Z,0.70
2022-11-28T03:01:24.577Z,0.70
2022-11-28T03:11:42.926Z,0.80
2022-11-28T03:21:58.086Z,0.90
2022-11-28T03:32:06.989Z,0.90
2022-11-28T03:42:16.173Z,0.90
2022-11-28T03:52:26.766Z,0.80
2022-11-28T04:02:36.832Z,0.90
2022-11-28T04:12:54.210Z,0.90
2022-11-28T04:23:06.751Z,0.90
2022-11-28T04:33:12.895Z,0.90
2022-11-28T04:43:23.067Z,0.90
2022-11-28T04:53:34.024Z,0.80
2022-11-28T05:03:42.846Z,0.90
2022-11-28T05:13:46.653Z,0.80
2022-11-28T05:23:51.469Z,0.90
2022-11-28T05:33:55.961Z,0.90
2022-11-28T05:44:01.754Z,0.90
2022-11-28T05:54:05.536Z,0.80
2022-11-28T06:04:10.449Z,0.80
2022-11-28T06:14:13.997Z,0.80
2022-11-28T06:24:19.061Z,0.80
2022-11-28T06:34:22.494Z,0.80
2022-11-28T06:44:27.371Z,0.90
2022-11-28T06:54:30.860Z,0.90
2022-11-28T07:04:35.698Z,1.10
2022-11-28T07:14:39.358Z,1.10
2022-11-28T07:24:44.259Z,1.30
2022-11-28T07:34:50.146Z,1.40
2022-11-28T07:44:55.282Z,1.70
2022-11-28T07:54:58.758Z,1.70
2022-11-28T08:05:03.611Z,1.90
2022-11-28T08:15:08.257Z,2.10
2022-11-28T08:25:13.122Z,2.40
2022-11-28T08:35:16.790Z,2.50
2022-11-28T08:45:21.709Z,2.70
2022-11-28T08:55:31.935Z,3.00
2022-11-28T09:05:37.671Z,3.30
2022-11-28T09:15:42.009Z,3.80
2022-11-28T09:25:46.842Z,4.20
2022-11-28T09:35:52.396Z,5.70
2022-11-28T09:45:59.401Z,8.90
2022-11-28T09:56:10.269Z,18.40
2022-11-28T10:06:22.029Z,16.30
2022-11-28T10:16:34.688Z,23.40
2022-11-28T10:26:46.002Z,27.60
2022-11-28T10:36:57.226Z,28.70
2022-11-28T10:47:08.852Z,29.70
2022-11-28T10:57:19.264Z,31.00
2022-11-28T11:07:29.918Z,31.80
2022-11-28T11:17:37.840Z,31.90
2022-11-28T11:27:50.796Z,32.60
2022-11-28T11:37:54.803Z,33.10
2022-11-28T11:47:59.917Z,32.90
2022-11-28T11:58:06.246Z,32.30
2022-11-28T12:08:18.097Z,31.60
2022-11-28T12:18:29.399Z,31.40
2022-11-28T12:28:50.675Z,30.20
2022-11-28T12:39:12.247Z,27.90
2022-11-28T12:49:22.697Z,26.80
2022-11-28T12:59:38.569Z,20.50
2022-11-28T13:10:00.026Z,24.40
2022-11-28T13:20:16.589Z,25.40
2022-11-28T13:30:23.483Z,24.20
2022-11-28T13:40:34.717Z,23.20
2022-11-28T13:51:02.098Z,21.50
2022-11-28T14:01:10.627Z,13.90
2022-11-28T14:11:43.820Z,9.90
2022-11-28T14:22:00.392Z,7.70
2022-11-28T14:32:28.996Z,6.00
2022-11-28T14:53:38.997Z,3.70
2022-11-28T15:03:53.889Z,2.90
2022-11-28T15:14:16.773Z,2.20
2022-11-28T15:24:28.532Z,1.50
2022-11-28T15:34:35.448Z,0.80
2022-11-28T15:44:40.091Z,0.40
2022-11-28T15:54:45.491Z,0.10
2022-11-28T16:04:49.364Z,-0.10
2022-11-28T16:14:58.846Z,-0.30
2022-11-28T16:25:18.478Z,-0.40
2022-11-28T16:35:30.009Z,-0.60
2022-11-28T16:45:34.986Z,-0.80
2022-11-28T16:55:48.938Z,-0.80
2022-11-28T17:05:52.436Z,-1.10
2022-11-28T17:15:58.663Z,-1.20
2022-11-28T17:26:02.417Z,-1.40
2022-11-28T17:36:08.137Z,-1.70
2022-11-28T17:46:11.784Z,-2.00
2022-11-28T17:56:16.759Z,-2.10
2022-11-28T18:06:21.284Z,-2.20
2022-11-28T18:16:30.212Z,-2.30
2022-11-28T18:26:34.957Z,-2.40
2022-11-28T18:36:41.295Z,-2.50
2022-11-28T18:46:45.890Z,-2.70
2022-11-28T18:56:51.142Z,-3.00
2022-11-28T19:06:54.806Z,-3.30
2022-11-28T19:17:00.012Z,-3.50
2022-11-28T19:27:03.596Z,-3.40
2022-11-28T19:37:09.204Z,-3.60
2022-11-28T19:47:12.704Z,-3.70
2022-11-28T19:57:20.790Z,-3.80
2022-11-28T20:07:24.625Z,-3.90
2022-11-28T20:17:29.525Z,-4.10
2022-11-28T20:27:33.446Z,-4.30
2022-11-28T20:37:39.072Z,-4.20
2022-11-28T20:47:48.270Z,-4.10
2022-11-28T20:57:54.567Z,-4.00
2022-11-28T21:07:58.200Z,-4.10
2022-11-28T21:18:03.795Z,-4.20
2022-11-28T21:28:09.217Z,-4.30
2022-11-28T21:38:14.457Z,-4.50
2022-11-28T21:48:18.122Z,-4.70
2022-11-28T21:58:26.605Z,-4.70
2022-11-28T22:08:31.780Z,-4.70
2022-11-28T22:18:37.344Z,-4.70
2022-11-28T22:28:42.438Z,-5.00
2022-11-28T22:38:49.117Z,-5.10
2022-11-28T22:48:53.285Z,-5.40
2022-11-28T22:58:58.341Z,-5.40
2022-11-28T23:09:05.563Z,-5.60
2022-11-28T23:19:14.694Z,-5.60
2022-11-28T23:29:18.881Z,-5.60
2022-11-28T23:39:24.569Z,-5.50
2022-11-28T23:49:28.056Z,-5.50
2022-11-28T23:59:32.855Z,-5.60
